CheckWX is a tool to help pilots better visualize weather data.  It is not intended as a substitute for an official pre-flight weather briefing.

00:02:28 UTC

KDHN TAF
Dothan Regional Airport
Dothan, Alabama, USA
KDHN 020521Z 0206/0306 12010KT P6SM -SHRA BKN050 FM020800 11008KT P6SM BKN050

Jun-2@
06:00 UTC

Jun-2 @ 06:00 UTC

Jun-2@
08:00 UTC

Jun-2 @ 08:00 UTC

TAF KDHN 020521Z 0206/0306 12010KT P6SM -SHRA BKN050

Expired

Wind
  • 120° at 10 KTS
Conditions
Light Showers, Rain
Cloud Levels
  • Broken at 5,000' AGL

Jun-2@
08:00 UTC

Jun-2 @ 08:00 UTC

Jun-3@
06:00 UTC

Jun-3 @ 06:00 UTC

FM020800 11008KT P6SM BKN050

From

From Standard forecast or significant change

Wind
  • 110° at 8 KTS
Cloud Levels
  • Broken at 5,000' AGL